Time;durP1;ratioP1;P1;durP2;ratioP2;P2;SDS_P1;SDS_P2;PMS_P1;PMS_P2;Temp;Humidity;BMP_temperature;BMP_pressure;BME280_temperature;BME280_humidity;BME280_pressure;Samples;Min_cycle;Max_cycle;Signal;HPM_P1;HPM_P2
2022/01/06 00:01:46;;;;;;;8.80;2.22;;;;;;;;;;4968727;28;20022;-70
2022/01/06 00:04:11;;;;;;;6.70;1.70;;;;;;;;;;4969344;28;20097;-70
2022/01/06 00:06:40;;;;;;;6.25;1.98;;;;;;;;;;4969892;28;20106;-71
2022/01/06 00:09:07;;;;;;;6.97;2.13;;;;;;;;;;4966389;28;20133;-69
2022/01/06 00:11:32;;;;;;;4.33;1.77;;;;;;;;;;4964275;28;20340;-71
2022/01/06 00:14:21;;;;;;;7.78;2.15;;;;;;;;;;4963724;28;20027;-71
2022/01/06 00:17:02;;;;;;;9.68;2.10;;;;;;;;;;4964073;28;20069;-70
2022/01/06 00:24:56;;;;;;;7.10;2.85;;;;;;;;;;4968522;28;20048;-70
2022/01/06 00:27:21;;;;;;;3.57;1.73;;;;;;;;;;4969260;28;20105;-71
2022/01/06 00:29:46;;;;;;;6.10;2.15;;;;;;;;;;4964387;28;20019;-71
2022/01/06 00:32:11;;;;;;;6.18;1.92;;;;;;;;;;4966886;28;20459;-71
2022/01/06 00:34:36;;;;;;;4.03;2.08;;;;;;;;;;4964871;28;20047;-71
2022/01/06 00:37:02;;;;;;;6.03;1.70;;;;;;;;;;4968298;28;20111;-70
2022/01/06 00:39:28;;;;;;;7.38;1.90;;;;;;;;;;4966700;28;20030;-71
2022/01/06 00:41:56;;;;;;;7.90;1.90;;;;;;;;;;4960912;28;20119;-71
2022/01/06 00:44:21;;;;;;;4.57;1.60;;;;;;;;;;4968875;28;20031;-70
2022/01/06 00:46:46;;;;;;;8.07;2.20;;;;;;;;;;4967560;28;20100;-70
2022/01/06 00:49:12;;;;;;;10.20;2.40;;;;;;;;;;4969250;28;20027;-70
2022/01/06 00:51:37;;;;;;;9.55;2.35;;;;;;;;;;4966983;28;20027;-71
2022/01/06 00:54:02;;;;;;;5.10;1.67;;;;;;;;;;4964229;28;20026;-69
2022/01/06 00:56:27;;;;;;;12.20;2.42;;;;;;;;;;4973988;28;20101;-70
2022/01/06 00:58:52;;;;;;;6.75;2.40;;;;;;;;;;4974750;28;20019;-70
2022/01/06 01:01:18;;;;;;;7.90;2.10;;;;;;;;;;4967750;28;20049;-72
2022/01/06 01:03:43;;;;;;;9.23;2.10;;;;;;;;;;4972220;28;20038;-70
2022/01/06 01:06:08;;;;;;;7.00;2.00;;;;;;;;;;4951316;28;20101;-71
2022/01/06 01:08:34;;;;;;;8.97;2.93;;;;;;;;;;4969416;28;20035;-70
2022/01/06 01:10:59;;;;;;;5.90;2.10;;;;;;;;;;4966997;28;20462;-70
2022/01/06 01:13:29;;;;;;;8.93;2.60;;;;;;;;;;4972303;28;20027;-71
2022/01/06 01:15:56;;;;;;;;;;;;;;;;;;4972677;28;20043;-71
2022/01/06 01:18:22;;;;;;;5.22;2.38;;;;;;;;;;4971977;28;19953;-72
2022/01/06 01:20:48;;;;;;;9.43;2.50;;;;;;;;;;4970732;28;20058;-71
2022/01/06 01:23:14;;;;;;;6.57;2.33;;;;;;;;;;4967227;28;20486;-72
2022/01/06 01:25:39;;;;;;;7.68;2.45;;;;;;;;;;4971930;28;20061;-71
2022/01/06 01:28:04;;;;;;;9.80;2.57;;;;;;;;;;4967799;28;20075;-70
2022/01/06 01:30:38;;;;;;;7.43;2.47;;;;;;;;;;4966651;28;20113;-71
2022/01/06 01:33:05;;;;;;;7.03;2.20;;;;;;;;;;4972232;28;20019;-71
2022/01/06 01:35:32;;;;;;;8.80;2.25;;;;;;;;;;4967634;28;20019;-71
2022/01/06 01:37:57;;;;;;;10.10;2.60;;;;;;;;;;4972089;28;20015;-72
2022/01/06 01:40:23;;;;;;;6.03;2.42;;;;;;;;;;4975072;28;20023;-71
2022/01/06 01:42:48;;;;;;;7.50;2.03;;;;;;;;;;4973136;28;20106;-71
2022/01/06 01:45:13;;;;;;;7.83;2.10;;;;;;;;;;4968106;28;20062;-71
2022/01/06 01:47:44;;;;;;;10.95;2.50;;;;;;;;;;4963703;28;20493;-71
2022/01/06 01:50:13;;;;;;;9.03;2.47;;;;;;;;;;4966235;28;20118;-72
2022/01/06 01:52:42;;;;;;;6.25;2.20;;;;;;;;;;4964752;28;20027;-71
2022/01/06 01:55:08;;;;;;;6.03;2.15;;;;;;;;;;4971338;28;20062;-72
2022/01/06 01:57:34;;;;;;;7.65;2.05;;;;;;;;;;4969428;28;20037;-71
2022/01/06 01:59:59;;;;;;;6.97;2.35;;;;;;;;;;4966729;28;20117;-71
2022/01/06 02:02:24;;;;;;;11.68;2.20;;;;;;;;;;4970273;28;20101;-71
2022/01/06 02:04:52;;;;;;;6.27;1.67;;;;;;;;;;4970032;28;20486;-71
2022/01/06 02:07:18;;;;;;;7.35;2.17;;;;;;;;;;4971039;28;20031;-72
2022/01/06 02:09:43;;;;;;;7.00;2.03;;;;;;;;;;4971378;28;20138;-72
2022/01/06 02:12:10;;;;;;;6.38;2.05;;;;;;;;;;4961319;28;20035;-72
2022/01/06 02:14:35;;;;;;;5.40;1.93;;;;;;;;;;4970762;28;20038;-71
2022/01/06 02:17:00;;;;;;;5.70;2.17;;;;;;;;;;4971359;28;20358;-72
2022/01/06 02:19:26;;;;;;;7.95;2.88;;;;;;;;;;4970888;28;20031;-72
2022/01/06 02:21:51;;;;;;;6.30;2.03;;;;;;;;;;4970519;28;20093;-70
2022/01/06 02:24:17;;;;;;;6.88;2.20;;;;;;;;;;4967319;28;20082;-70
2022/01/06 02:26:42;;;;;;;9.87;2.33;;;;;;;;;;4971832;28;20054;-71
2022/01/06 02:29:08;;;;;;;7.03;1.83;;;;;;;;;;4973318;28;20030;-71
2022/01/06 02:31:40;;;;;;;4.32;2.00;;;;;;;;;;4973184;28;20066;-72
2022/01/06 02:34:05;;;;;;;7.90;2.10;;;;;;;;;;4976538;28;20023;-71
2022/01/06 02:36:31;;;;;;;8.77;2.10;;;;;;;;;;4970971;28;20275;-72
2022/01/06 02:38:56;;;;;;;6.30;2.13;;;;;;;;;;4971328;28;20031;-72
2022/01/06 02:41:21;;;;;;;6.45;2.22;;;;;;;;;;4970220;28;20490;-72
2022/01/06 02:43:48;;;;;;;5.20;1.65;;;;;;;;;;4970522;28;20054;-71
2022/01/06 02:46:13;;;;;;;8.68;1.98;;;;;;;;;;4970747;28;20102;-72
2022/01/06 02:48:39;;;;;;;6.13;1.80;;;;;;;;;;4964240;28;20450;-71
2022/01/06 02:51:05;;;;;;;6.28;2.20;;;;;;;;;;4968541;28;20027;-70
2022/01/06 02:53:30;;;;;;;8.93;2.00;;;;;;;;;;4964765;28;20033;-70
2022/01/06 02:55:56;;;;;;;3.75;1.70;;;;;;;;;;4969971;28;20042;-71
2022/01/06 02:58:21;;;;;;;6.97;1.85;;;;;;;;;;4966457;28;20498;-70
2022/01/06 03:00:47;;;;;;;3.67;1.65;;;;;;;;;;4961803;28;20483;-72
2022/01/06 03:03:12;;;;;;;7.82;2.67;;;;;;;;;;4962218;28;20023;-70
2022/01/06 03:05:37;;;;;;;8.82;1.92;;;;;;;;;;4969939;28;20030;-72
2022/01/06 03:08:02;;;;;;;9.07;2.00;;;;;;;;;;4970094;28;20031;-70
2022/01/06 03:10:30;;;;;;;7.35;1.80;;;;;;;;;;4966841;28;20387;-72
2022/01/06 03:12:55;;;;;;;6.68;1.98;;;;;;;;;;4962163;28;20778;-71
2022/01/06 03:15:22;;;;;;;6.87;2.00;;;;;;;;;;4965128;28;20089;-70
2022/01/06 03:17:49;;;;;;;9.10;2.97;;;;;;;;;;4966255;28;20355;-70
2022/01/06 03:20:15;;;;;;;7.13;2.00;;;;;;;;;;4970054;28;20394;-71
2022/01/06 03:22:41;;;;;;;6.65;2.08;;;;;;;;;;4969108;28;20030;-71
2022/01/06 03:25:07;;;;;;;3.87;1.83;;;;;;;;;;4951314;28;20106;-71
2022/01/06 03:27:32;;;;;;;5.88;2.25;;;;;;;;;;4969875;28;20615;-72
2022/01/06 03:29:57;;;;;;;4.43;1.95;;;;;;;;;;4969484;28;20041;-70
2022/01/06 03:32:23;;;;;;;6.75;2.30;;;;;;;;;;4970080;28;20019;-71
2022/01/06 03:34:48;;;;;;;7.35;2.42;;;;;;;;;;4968997;28;20916;-71
2022/01/06 03:37:13;;;;;;;9.07;2.25;;;;;;;;;;4966799;28;20065;-70
2022/01/06 03:39:39;;;;;;;6.43;1.80;;;;;;;;;;4965228;28;20518;-71
2022/01/06 03:42:04;;;;;;;7.82;1.85;;;;;;;;;;4969005;28;20031;-71
2022/01/06 03:44:30;;;;;;;6.55;2.00;;;;;;;;;;4964874;28;20534;-70
2022/01/06 03:46:55;;;;;;;3.43;1.90;;;;;;;;;;4964802;28;20027;-70
2022/01/06 03:49:21;;;;;;;8.05;2.10;;;;;;;;;;4962659;28;20407;-71
2022/01/06 03:51:46;;;;;;;7.47;2.28;;;;;;;;;;4968941;28;20654;-71
2022/01/06 03:54:11;;;;;;;6.15;2.10;;;;;;;;;;4963898;28;20093;-71
2022/01/06 03:56:36;;;;;;;5.47;2.30;;;;;;;;;;4969357;28;20578;-71
2022/01/06 03:59:02;;;;;;;4.45;2.00;;;;;;;;;;4968490;28;20039;-71
2022/01/06 04:01:27;;;;;;;4.93;1.80;;;;;;;;;;4965820;28;20185;-71
2022/01/06 04:03:52;;;;;;;6.00;2.23;;;;;;;;;;4966800;28;20034;-71
2022/01/06 04:06:18;;;;;;;6.45;2.50;;;;;;;;;;4968590;28;20545;-71
2022/01/06 04:08:44;;;;;;;6.85;2.88;;;;;;;;;;4967917;28;20023;-71
2022/01/06 04:11:10;;;;;;;6.80;2.20;;;;;;;;;;4965277;28;20050;-71
2022/01/06 04:13:35;;;;;;;5.70;2.00;;;;;;;;;;4966508;28;20120;-71
2022/01/06 04:16:07;;;;;;;6.45;2.00;;;;;;;;;;4965959;28;20363;-71
2022/01/06 04:18:32;;;;;;;5.97;1.88;;;;;;;;;;4968191;28;20022;-71
2022/01/06 04:20:58;;;;;;;4.38;2.03;;;;;;;;;;4966483;28;20038;-71
2022/01/06 04:23:23;;;;;;;6.55;2.10;;;;;;;;;;4968774;28;20731;-71
2022/01/06 04:25:48;;;;;;;4.40;2.13;;;;;;;;;;4968629;28;20041;-72
2022/01/06 04:28:13;;;;;;;7.07;2.33;;;;;;;;;;4970724;28;20034;-72
2022/01/06 04:30:38;;;;;;;7.93;3.13;;;;;;;;;;4973028;28;20015;-71
2022/01/06 04:33:03;;;;;;;6.80;2.25;;;;;;;;;;4972369;28;20019;-72
2022/01/06 04:35:29;;;;;;;5.68;2.17;;;;;;;;;;4972525;28;20039;-71
2022/01/06 04:37:54;;;;;;;6.00;2.27;;;;;;;;;;4963262;28;20077;-70
2022/01/06 04:40:19;;;;;;;5.50;2.13;;;;;;;;;;4970422;28;20030;-72
2022/01/06 04:42:44;;;;;;;6.30;2.58;;;;;;;;;;4972051;28;20492;-71
2022/01/06 04:45:09;;;;;;;7.72;2.33;;;;;;;;;;4971560;28;20042;-73
2022/01/06 04:47:35;;;;;;;6.68;2.35;;;;;;;;;;4973056;28;20046;-71
2022/01/06 04:50:00;;;;;;;4.55;2.20;;;;;;;;;;4972113;28;20027;-72
2022/01/06 04:52:25;;;;;;;5.00;2.10;;;;;;;;;;4970874;28;20489;-71
2022/01/06 04:54:50;;;;;;;6.47;2.15;;;;;;;;;;4969190;28;20051;-71
2022/01/06 04:57:15;;;;;;;7.90;2.30;;;;;;;;;;4969362;28;20483;-70
2022/01/06 04:59:41;;;;;;;6.87;2.57;;;;;;;;;;4968708;28;20041;-72
2022/01/06 05:02:06;;;;;;;8.53;2.70;;;;;;;;;;4965407;28;20031;-72
2022/01/06 05:04:31;;;;;;;6.28;2.42;;;;;;;;;;4971084;28;20037;-71
2022/01/06 05:06:56;;;;;;;6.45;3.05;;;;;;;;;;4971563;28;20431;-70
2022/01/06 05:09:21;;;;;;;4.60;2.50;;;;;;;;;;4972258;28;20745;-71
2022/01/06 05:11:47;;;;;;;4.75;2.40;;;;;;;;;;4970716;28;20324;-72
2022/01/06 05:14:12;;;;;;;6.55;2.20;;;;;;;;;;4970104;28;20038;-72
2022/01/06 05:16:37;;;;;;;4.60;2.30;;;;;;;;;;4966984;28;20131;-71
2022/01/06 05:19:02;;;;;;;8.48;2.78;;;;;;;;;;4971842;28;20456;-73
2022/01/06 05:21:31;;;;;;;5.17;2.50;;;;;;;;;;4970373;28;20037;-72
2022/01/06 05:23:57;;;;;;;4.68;2.15;;;;;;;;;;4968665;28;20102;-72
2022/01/06 05:26:22;;;;;;;5.75;2.45;;;;;;;;;;4968927;28;20467;-71
2022/01/06 05:28:47;;;;;;;9.88;2.53;;;;;;;;;;4971374;28;20604;-71
2022/01/06 05:31:13;;;;;;;6.93;2.47;;;;;;;;;;4970426;28;20074;-72
2022/01/06 05:33:38;;;;;;;5.93;2.73;;;;;;;;;;4966545;28;20126;-71
2022/01/06 05:36:03;;;;;;;4.33;2.23;;;;;;;;;;4972002;28;20728;-71
2022/01/06 05:38:28;;;;;;;6.63;2.30;;;;;;;;;;4969785;28;20478;-71
2022/01/06 05:40:54;;;;;;;5.17;2.30;;;;;;;;;;4971276;28;20145;-71
2022/01/06 05:43:20;;;;;;;4.37;2.30;;;;;;;;;;4968026;28;20127;-71
2022/01/06 05:45:46;;;;;;;5.10;2.00;;;;;;;;;;4969834;28;20030;-70
2022/01/06 05:48:11;;;;;;;7.88;2.60;;;;;;;;;;4969737;28;20489;-70
2022/01/06 05:50:36;;;;;;;8.18;2.50;;;;;;;;;;4969058;28;20473;-69
2022/01/06 05:53:01;;;;;;;4.40;2.40;;;;;;;;;;4969470;28;20019;-71
2022/01/06 05:55:26;;;;;;;6.18;2.38;;;;;;;;;;4968628;28;20478;-72
2022/01/06 05:57:52;;;;;;;4.30;1.93;;;;;;;;;;4972903;28;20027;-70
2022/01/06 06:00:17;;;;;;;5.97;2.70;;;;;;;;;;4967416;28;20058;-69
2022/01/06 06:02:43;;;;;;;4.40;2.07;;;;;;;;;;4966772;28;20019;-70
2022/01/06 06:05:08;;;;;;;8.02;2.58;;;;;;;;;;4964312;28;20110;-72
2022/01/06 06:07:33;;;;;;;5.15;2.38;;;;;;;;;;4970797;28;20043;-72
2022/01/06 06:09:58;;;;;;;4.35;1.67;;;;;;;;;;4970846;28;20478;-71
2022/01/06 06:12:23;;;;;;;6.68;1.88;;;;;;;;;;4968728;28;20059;-71
2022/01/06 06:14:49;;;;;;;6.60;2.20;;;;;;;;;;4967565;28;20133;-71
2022/01/06 06:17:14;;;;;;;5.80;2.22;;;;;;;;;;4967764;28;20114;-71
2022/01/06 06:19:39;;;;;;;4.78;1.60;;;;;;;;;;4969371;28;20038;-70
2022/01/06 06:22:04;;;;;;;4.07;1.80;;;;;;;;;;4971150;28;20491;-71
2022/01/06 06:24:30;;;;;;;6.30;1.95;;;;;;;;;;4968913;28;20096;-72
2022/01/06 06:26:55;;;;;;;6.40;2.58;;;;;;;;;;4969227;28;20031;-71
2022/01/06 06:29:20;;;;;;;3.85;1.92;;;;;;;;;;4969490;28;20044;-72
2022/01/06 06:31:46;;;;;;;4.30;1.77;;;;;;;;;;4961255;28;20015;-71
2022/01/06 06:34:11;;;;;;;3.80;1.50;;;;;;;;;;4968370;28;20152;-70
2022/01/06 06:36:36;;;;;;;5.80;2.03;;;;;;;;;;4969345;28;20019;-71
2022/01/06 06:39:01;;;;;;;4.90;1.85;;;;;;;;;;4969810;28;20458;-70
2022/01/06 06:41:27;;;;;;;3.92;1.77;;;;;;;;;;4970846;28;20025;-73
2022/01/06 06:43:52;;;;;;;6.63;1.80;;;;;;;;;;4970246;28;20058;-71
2022/01/06 06:46:17;;;;;;;5.38;1.80;;;;;;;;;;4966625;28;20061;-70
2022/01/06 06:48:42;;;;;;;3.08;1.63;;;;;;;;;;4968145;28;20035;-70
2022/01/06 06:51:07;;;;;;;5.15;1.75;;;;;;;;;;4964607;28;20038;-71
2022/01/06 06:53:33;;;;;;;7.15;1.67;;;;;;;;;;4968803;28;20022;-71
2022/01/06 06:55:58;;;;;;;5.18;1.80;;;;;;;;;;4965719;28;20022;-71
2022/01/06 06:58:23;;;;;;;3.85;1.48;;;;;;;;;;4969263;28;20418;-71
2022/01/06 07:00:48;;;;;;;7.47;2.08;;;;;;;;;;4967422;28;20031;-70
2022/01/06 07:03:14;;;;;;;2.78;1.70;;;;;;;;;;4967518;28;20374;-71
2022/01/06 07:05:39;;;;;;;8.15;1.90;;;;;;;;;;4969951;28;20059;-70
2022/01/06 07:08:04;;;;;;;4.07;2.10;;;;;;;;;;4964531;28;20035;-71
2022/01/06 07:10:29;;;;;;;4.70;2.10;;;;;;;;;;4968763;28;20085;-70
2022/01/06 07:12:54;;;;;;;3.40;1.80;;;;;;;;;;4965721;28;20029;-72
2022/01/06 07:15:20;;;;;;;4.72;2.42;;;;;;;;;;4967401;28;20050;-70
2022/01/06 07:17:45;;;;;;;6.05;2.08;;;;;;;;;;4970124;28;20479;-71
2022/01/06 07:20:10;;;;;;;5.18;2.30;;;;;;;;;;4969518;28;20106;-71
2022/01/06 07:22:36;;;;;;;7.72;2.17;;;;;;;;;;4969323;28;20356;-71
2022/01/06 07:25:02;;;;;;;5.15;2.20;;;;;;;;;;4969952;28;20043;-71
2022/01/06 07:27:27;;;;;;;7.37;3.20;;;;;;;;;;4970131;28;20169;-71
2022/01/06 07:29:52;;;;;;;7.47;2.30;;;;;;;;;;4967788;28;20027;-71
2022/01/06 07:32:17;;;;;;;6.37;2.10;;;;;;;;;;4969210;28;20038;-71
2022/01/06 07:34:42;;;;;;;5.47;2.03;;;;;;;;;;4968919;28;20794;-71
2022/01/06 07:37:07;;;;;;;5.03;2.13;;;;;;;;;;4969827;28;20038;-71
2022/01/06 07:39:33;;;;;;;6.80;2.42;;;;;;;;;;4947960;28;20188;-72
2022/01/06 07:41:58;;;;;;;6.07;1.83;;;;;;;;;;4962074;28;20038;-71
2022/01/06 07:44:23;;;;;;;4.88;1.98;;;;;;;;;;4969604;28;20146;-71
2022/01/06 07:46:49;;;;;;;5.03;2.03;;;;;;;;;;4968636;28;20023;-71
2022/01/06 07:49:14;;;;;;;8.15;2.15;;;;;;;;;;4969541;28;20105;-71
2022/01/06 07:51:40;;;;;;;4.28;1.90;;;;;;;;;;4970576;28;20038;-70
2022/01/06 07:54:05;;;;;;;6.68;2.22;;;;;;;;;;4969458;28;20034;-72
2022/01/06 07:56:30;;;;;;;3.83;1.80;;;;;;;;;;4960833;28;20042;-72
2022/01/06 07:58:56;;;;;;;5.82;2.40;;;;;;;;;;4970034;28;20516;-72
2022/01/06 08:01:21;;;;;;;4.50;1.92;;;;;;;;;;4964749;28;20512;-71
2022/01/06 08:03:46;;;;;;;4.97;2.22;;;;;;;;;;4970312;28;20362;-72
2022/01/06 08:06:12;;;;;;;4.03;1.85;;;;;;;;;;4969878;28;20138;-71
2022/01/06 08:08:37;;;;;;;3.53;1.70;;;;;;;;;;4969960;28;20026;-70
2022/01/06 08:11:03;;;;;;;4.95;1.95;;;;;;;;;;4964824;28;20039;-71
2022/01/06 08:13:28;;;;;;;5.75;2.03;;;;;;;;;;4964126;28;20546;-71
2022/01/06 08:15:53;;;;;;;5.68;1.80;;;;;;;;;;4962679;28;20086;-71
2022/01/06 08:18:19;;;;;;;6.45;1.80;;;;;;;;;;4966300;28;20502;-70
2022/01/06 08:20:44;;;;;;;5.90;2.03;;;;;;;;;;4965471;28;20031;-70
2022/01/06 08:23:09;;;;;;;6.30;1.98;;;;;;;;;;4959816;28;20114;-71
2022/01/06 08:25:35;;;;;;;4.40;1.92;;;;;;;;;;4961092;28;20367;-70
2022/01/06 08:28:00;;;;;;;4.70;2.13;;;;;;;;;;4966297;28;20482;-70
2022/01/06 08:30:25;;;;;;;5.38;1.77;;;;;;;;;;4952554;28;20608;-71
2022/01/06 08:32:50;;;;;;;4.10;1.90;;;;;;;;;;4966038;28;20169;-70
2022/01/06 08:35:16;;;;;;;5.63;1.83;;;;;;;;;;4967155;28;20035;-72
2022/01/06 08:37:41;;;;;;;3.97;1.77;;;;;;;;;;4961142;28;20482;-71
2022/01/06 08:40:07;;;;;;;8.35;2.20;;;;;;;;;;4964901;28;20060;-70
2022/01/06 08:42:32;;;;;;;4.97;1.90;;;;;;;;;;4967152;28;20020;-70
2022/01/06 08:44:57;;;;;;;3.75;1.77;;;;;;;;;;4966209;28;20112;-69
2022/01/06 08:47:23;;;;;;;4.75;2.30;;;;;;;;;;4950724;28;20042;-70
2022/01/06 08:49:48;;;;;;;3.28;1.85;;;;;;;;;;4962555;28;20505;-70
2022/01/06 08:52:13;;;;;;;4.47;1.98;;;;;;;;;;4965212;28;20351;-70
2022/01/06 08:54:38;;;;;;;6.03;2.08;;;;;;;;;;4970222;28;20079;-70
2022/01/06 08:57:04;;;;;;;5.47;2.80;;;;;;;;;;4977276;28;20106;-71
2022/01/06 08:59:29;;;;;;;5.70;2.15;;;;;;;;;;4975775;28;20027;-64
2022/01/06 09:01:54;;;;;;;3.35;1.70;;;;;;;;;;4971564;28;20026;-67
2022/01/06 09:04:20;;;;;;;3.92;2.05;;;;;;;;;;4967564;28;20628;-64
2022/01/06 09:06:48;;;;;;;8.73;2.50;;;;;;;;;;4973165;28;20029;-65
2022/01/06 09:09:14;;;;;;;5.10;1.70;;;;;;;;;;4965790;28;20034;-65
2022/01/06 09:11:39;;;;;;;4.80;2.00;;;;;;;;;;4972146;28;20027;-66
2022/01/06 09:14:04;;;;;;;4.07;2.00;;;;;;;;;;4968915;28;20037;-64
2022/01/06 09:16:29;;;;;;;5.45;2.03;;;;;;;;;;4972832;28;20482;-65
2022/01/06 09:18:54;;;;;;;6.60;2.22;;;;;;;;;;4972245;28;20034;-64
2022/01/06 09:21:22;;;;;;;6.35;2.08;;;;;;;;;;4972725;28;20389;-65
2022/01/06 09:23:48;;;;;;;4.43;2.10;;;;;;;;;;4969778;28;20146;-66
2022/01/06 09:26:13;;;;;;;4.53;1.80;;;;;;;;;;4969704;28;20113;-65
2022/01/06 09:28:38;;;;;;;6.28;2.28;;;;;;;;;;4970292;28;20035;-65
2022/01/06 09:31:03;;;;;;;5.20;2.20;;;;;;;;;;4970050;28;20487;-65
2022/01/06 09:33:28;;;;;;;6.63;2.38;;;;;;;;;;4968479;28;20038;-65
2022/01/06 09:35:54;;;;;;;4.22;2.08;;;;;;;;;;4970868;28;20418;-64
2022/01/06 09:38:19;;;;;;;5.30;2.40;;;;;;;;;;4970089;28;20113;-65
2022/01/06 09:40:45;;;;;;;5.10;2.10;;;;;;;;;;4968870;28;20019;-65
2022/01/06 09:43:12;;;;;;;8.32;2.30;;;;;;;;;;4967011;28;20027;-65
2022/01/06 09:45:38;;;;;;;4.57;2.10;;;;;;;;;;4970704;28;20129;-64
2022/01/06 09:48:04;;;;;;;4.78;2.78;;;;;;;;;;4969595;28;20115;-65
2022/01/06 09:50:29;;;;;;;5.53;2.75;;;;;;;;;;4970736;28;20031;-65
2022/01/06 09:52:55;;;;;;;5.28;2.53;;;;;;;;;;4969024;28;20060;-64
2022/01/06 09:55:21;;;;;;;4.22;2.25;;;;;;;;;;4971148;28;20100;-66
2022/01/06 09:57:59;;;;;;;7.18;2.33;;;;;;;;;;4968204;28;20022;-65
2022/01/06 10:00:28;;;;;;;5.80;2.45;;;;;;;;;;4971594;28;20030;-66
2022/01/06 10:02:54;;;;;;;8.50;2.92;;;;;;;;;;4970418;28;20033;-64
2022/01/06 10:05:20;;;;;;;8.82;2.83;;;;;;;;;;4970021;28;20453;-64
2022/01/06 10:07:45;;;;;;;6.10;2.88;;;;;;;;;;4962789;28;20058;-64
2022/01/06 10:10:12;;;;;;;4.45;2.33;;;;;;;;;;4969431;28;20439;-64
2022/01/06 10:12:40;;;;;;;3.80;2.60;;;;;;;;;;4968559;28;20018;-64
2022/01/06 10:15:24;;;;;;;4.32;2.42;;;;;;;;;;4963662;28;20139;-65
2022/01/06 10:17:50;;;;;;;7.03;3.28;;;;;;;;;;4969901;28;20386;-65
2022/01/06 10:20:16;;;;;;;5.35;2.30;;;;;;;;;;4964469;28;20019;-64
2022/01/06 10:22:43;;;;;;;7.05;2.58;;;;;;;;;;4965198;28;20023;-64
2022/01/06 10:25:08;;;;;;;7.65;2.72;;;;;;;;;;4964755;28;20134;-66
2022/01/06 10:27:33;;;;;;;4.43;2.47;;;;;;;;;;4967189;28;20102;-65
2022/01/06 10:29:58;;;;;;;5.72;2.60;;;;;;;;;;4970294;28;20026;-65
2022/01/06 10:32:25;;;;;;;4.70;2.30;;;;;;;;;;4968025;28;20111;-66
2022/01/06 10:34:51;;;;;;;4.53;2.10;;;;;;;;;;4969804;28;20023;-65
2022/01/06 10:37:25;;;;;;;4.75;2.30;;;;;;;;;;4967186;28;20395;-65
2022/01/06 10:39:53;;;;;;;7.30;2.45;;;;;;;;;;4967833;28;20537;-65
2022/01/06 10:42:21;;;;;;;5.15;2.55;;;;;;;;;;4970232;28;20078;-64
2022/01/06 10:44:51;;;;;;;4.55;2.50;;;;;;;;;;4968371;28;20030;-65
2022/01/06 10:47:16;;;;;;;;;;;;;;;;;;4967244;28;20043;-65
2022/01/06 10:49:41;;;;;;;6.03;2.42;;;;;;;;;;4970220;28;20005;-65
2022/01/06 10:52:07;;;;;;;6.07;2.58;;;;;;;;;;4966374;28;20599;-65
2022/01/06 10:54:35;;;;;;;6.60;2.50;;;;;;;;;;4967273;28;20469;-65
2022/01/06 10:57:02;;;;;;;5.43;2.55;;;;;;;;;;4966444;28;20027;-65
2022/01/06 10:59:29;;;;;;;7.32;2.63;;;;;;;;;;4962465;28;20042;-65
2022/01/06 11:01:54;;;;;;;3.88;2.72;;;;;;;;;;4968900;28;20035;-64
2022/01/06 11:04:20;;;;;;;4.53;2.75;;;;;;;;;;4969237;28;20050;-64
2022/01/06 11:06:45;;;;;;;7.78;3.15;;;;;;;;;;4969559;28;20035;-64
2022/01/06 11:09:11;;;;;;;6.00;2.70;;;;;;;;;;4968838;28;20030;-65
2022/01/06 11:14:23;;;;;;;8.93;3.33;;;;;;;;;;4970001;28;20177;-64
2022/01/06 11:16:48;;;;;;;7.38;3.50;;;;;;;;;;4969802;28;20035;-65
2022/01/06 11:19:13;;;;;;;6.40;3.58;;;;;;;;;;4968062;28;20622;-64
2022/01/06 11:21:41;;;;;;;7.82;3.45;;;;;;;;;;4969861;28;20108;-64
2022/01/06 11:24:16;;;;;;;7.78;4.03;;;;;;;;;;4968609;28;20030;-64
2022/01/06 11:26:56;;;;;;;8.02;4.45;;;;;;;;;;4963678;28;20374;-65
2022/01/06 11:29:21;;;;;;;;;;;;;;;;;;4963479;28;20026;-64
2022/01/06 11:31:46;;;;;;;7.00;3.90;;;;;;;;;;4970019;28;19913;-66
2022/01/06 11:34:13;;;;;;;9.35;4.63;;;;;;;;;;4965772;28;20022;-66
2022/01/06 11:36:38;;;;;;;10.32;4.32;;;;;;;;;;4968987;28;20031;-65
2022/01/06 11:39:06;;;;;;;9.43;4.50;;;;;;;;;;4969960;28;20457;-65
2022/01/06 11:41:33;;;;;;;7.60;4.05;;;;;;;;;;4967361;28;20134;-65
2022/01/06 11:43:58;;;;;;;9.13;4.43;;;;;;;;;;4969667;28;20030;-64
2022/01/06 11:46:24;;;;;;;5.85;3.55;;;;;;;;;;4968958;28;20018;-64
2022/01/06 11:48:54;;;;;;;7.38;4.07;;;;;;;;;;4968900;28;20082;-64
2022/01/06 11:51:29;;;;;;;8.77;4.97;;;;;;;;;;4966171;28;20034;-64
2022/01/06 11:53:55;;;;;;;9.23;3.85;;;;;;;;;;4969896;28;20026;-64
2022/01/06 11:56:22;;;;;;;10.15;3.88;;;;;;;;;;4968662;28;20046;-64
2022/01/06 11:59:04;;;;;;;8.77;4.10;;;;;;;;;;4968714;28;20026;-65
2022/01/06 12:01:44;;;;;;;6.45;3.78;;;;;;;;;;4957816;28;20106;-64
2022/01/06 12:04:16;;;;;;;6.82;3.90;;;;;;;;;;4968178;28;20348;-64
2022/01/06 12:06:42;;;;;;;7.07;3.63;;;;;;;;;;4969090;28;20053;-64
2022/01/06 12:09:16;;;;;;;7.10;3.70;;;;;;;;;;4966220;28;20039;-65
2022/01/06 12:11:41;;;;;;;6.07;3.63;;;;;;;;;;4966227;28;20069;-65
2022/01/06 12:14:07;;;;;;;7.38;3.45;;;;;;;;;;4967557;28;20057;-66
2022/01/06 12:16:34;;;;;;;7.70;3.30;;;;;;;;;;4967813;28;20479;-66
2022/01/06 12:19:01;;;;;;;6.25;3.58;;;;;;;;;;4969194;28;20031;-65
2022/01/06 12:21:26;;;;;;;8.18;3.30;;;;;;;;;;4966997;28;20077;-65
2022/01/06 12:24:02;;;;;;;7.25;3.53;;;;;;;;;;4969111;28;20427;-65
2022/01/06 12:26:27;;;;;;;7.93;3.75;;;;;;;;;;4968781;28;20030;-65
2022/01/06 12:28:53;;;;;;;8.32;3.50;;;;;;;;;;4969400;28;20081;-65
2022/01/06 12:31:22;;;;;;;6.72;3.83;;;;;;;;;;4968895;28;20050;-65
2022/01/06 12:33:49;;;;;;;7.78;3.63;;;;;;;;;;4961712;28;20027;-65
2022/01/06 12:36:18;;;;;;;8.93;4.85;;;;;;;;;;4968777;28;20049;-65
2022/01/06 12:38:44;;;;;;;6.60;3.60;;;;;;;;;;4968959;28;20030;-65
2022/01/06 12:41:11;;;;;;;7.63;3.58;;;;;;;;;;4969091;28;20364;-65
2022/01/06 12:43:37;;;;;;;6.22;3.38;;;;;;;;;;4968845;28;20023;-65
2022/01/06 12:46:04;;;;;;;6.43;3.40;;;;;;;;;;4969061;28;20108;-66
2022/01/06 12:48:31;;;;;;;5.95;3.63;;;;;;;;;;4969841;28;20458;-66
2022/01/06 12:50:56;;;;;;;8.43;3.22;;;;;;;;;;4972335;28;20044;-65
2022/01/06 12:53:26;;;;;;;6.03;3.00;;;;;;;;;;4972056;28;20313;-66
2022/01/06 12:55:51;;;;;;;6.15;3.95;;;;;;;;;;4972435;28;20382;-66
2022/01/06 12:58:28;;;;;;;5.78;3.30;;;;;;;;;;4975211;28;20045;-65
2022/01/06 13:00:55;;;;;;;6.65;3.15;;;;;;;;;;4971871;28;20019;-67
2022/01/06 13:03:30;;;;;;;7.93;3.08;;;;;;;;;;4972262;28;20094;-65
2022/01/06 13:05:56;;;;;;;8.07;2.85;;;;;;;;;;4972698;28;20035;-66
2022/01/06 13:08:21;;;;;;;5.13;2.30;;;;;;;;;;4970279;28;20111;-65
2022/01/06 13:10:46;;;;;;;5.60;2.80;;;;;;;;;;4972127;28;20359;-66
2022/01/06 13:13:12;;;;;;;7.25;2.92;;;;;;;;;;4971943;28;20430;-66
2022/01/06 13:15:37;;;;;;;7.13;3.00;;;;;;;;;;4970630;28;20055;-65
2022/01/06 13:18:02;;;;;;;5.72;2.50;;;;;;;;;;4971445;28;20022;-65
2022/01/06 13:20:35;;;;;;;9.98;2.92;;;;;;;;;;4971972;28;20573;-67
2022/01/06 13:23:41;;;;;;;9.20;2.72;;;;;;;;;;4972499;28;20034;-66
2022/01/06 13:26:02;;;;;;;5.30;2.20;;;;;;;;;;4968743;28;20130;-67
2022/01/06 13:28:27;;;;;;;7.55;2.38;;;;;;;;;;4971856;28;20027;-65
2022/01/06 13:30:53;;;;;;;6.43;2.40;;;;;;;;;;4970928;28;20433;-64
2022/01/06 13:33:22;;;;;;;8.82;2.97;;;;;;;;;;4971349;28;20031;-65
2022/01/06 13:35:47;;;;;;;10.18;2.50;;;;;;;;;;4971478;28;20521;-65
2022/01/06 13:38:16;;;;;;;7.50;1.83;;;;;;;;;;4971232;28;20035;-66
2022/01/06 13:40:44;;;;;;;6.57;2.37;;;;;;;;;;4971342;28;20023;-66
2022/01/06 13:43:13;;;;;;;5.75;2.30;;;;;;;;;;4971463;28;20043;-65
2022/01/06 13:45:44;;;;;;;6.35;2.47;;;;;;;;;;4971175;28;20090;-65
2022/01/06 13:48:34;;;;;;;8.18;2.75;;;;;;;;;;4969448;28;20494;-65
2022/01/06 13:51:08;;;;;;;8.80;2.75;;;;;;;;;;4967099;28;20046;-65
2022/01/06 13:53:40;;;;;;;7.38;2.58;;;;;;;;;;4969284;28;20482;-65
2022/01/06 13:56:06;;;;;;;6.93;2.60;;;;;;;;;;4965942;28;20033;-65
2022/01/06 13:58:36;;;;;;;5.43;2.40;;;;;;;;;;4971067;28;20109;-64
2022/01/06 14:01:02;;;;;;;6.22;2.33;;;;;;;;;;4970105;28;20038;-66
2022/01/06 14:03:31;;;;;;;7.53;2.40;;;;;;;;;;4966211;28;20094;-65
2022/01/06 14:05:57;;;;;;;5.83;2.67;;;;;;;;;;4970066;28;20042;-65
2022/01/06 14:08:22;;;;;;;6.13;2.40;;;;;;;;;;4970306;28;20623;-66
2022/01/06 14:10:47;;;;;;;7.88;2.38;;;;;;;;;;4971462;28;20089;-65
2022/01/06 14:13:12;;;;;;;6.07;2.10;;;;;;;;;;4970409;28;20048;-66
2022/01/06 14:15:37;;;;;;;7.15;2.60;;;;;;;;;;4966012;28;20066;-66
2022/01/06 14:18:02;;;;;;;7.40;2.60;;;;;;;;;;4970582;28;20023;-65
2022/01/06 14:20:28;;;;;;;8.07;2.53;;;;;;;;;;4970352;28;20493;-65
2022/01/06 14:22:53;;;;;;;7.60;2.88;;;;;;;;;;4970062;28;20035;-65
2022/01/06 14:25:18;;;;;;;7.15;2.65;;;;;;;;;;4963788;28;20038;-65
2022/01/06 14:27:43;;;;;;;7.90;2.70;;;;;;;;;;4975554;28;20045;-65
2022/01/06 14:30:08;;;;;;;7.05;2.30;;;;;;;;;;4970395;28;20548;-65
2022/01/06 14:32:36;;;;;;;6.68;2.60;;;;;;;;;;4969922;28;20058;-65
2022/01/06 14:35:01;;;;;;;7.30;2.80;;;;;;;;;;4969896;28;20019;-65
2022/01/06 14:37:26;;;;;;;6.47;2.78;;;;;;;;;;4970356;28;20107;-65
2022/01/06 14:39:51;;;;;;;6.68;2.83;;;;;;;;;;4970661;28;20114;-66
2022/01/06 14:42:16;;;;;;;8.27;2.70;;;;;;;;;;4970791;28;20027;-65
2022/01/06 14:44:42;;;;;;;10.90;3.67;;;;;;;;;;4970831;28;20030;-66
2022/01/06 14:47:07;;;;;;;10.57;3.60;;;;;;;;;;4967826;28;20031;-65